Time;durP1;ratioP1;P1;durP2;ratioP2;P2;SDS_P1;SDS_P2;PMS_P1;PMS_P2;Temp;Humidity;BMP_temperature;BMP_pressure;BME280_temperature;BME280_humidity;BME280_pressure;Samples;Min_cycle;Max_cycle;Signal;HPM_P1;HPM_P2
2021/12/17 00:04:59;;;;;;;3.92;1.30;;;;;;;3.83;74.12;99009.78;6042711;23;20095;-76
2021/12/17 00:07:27;;;;;;;2.42;1.80;;;;;;;3.73;74.38;99002.00;6059193;23;20058;-77
2021/12/17 00:09:56;;;;;;;1.85;1.48;;;;;;;3.52;74.09;98994.16;6072394;23;20015;-74
2021/12/17 00:12:24;;;;;;;2.05;1.48;;;;;;;3.68;74.26;99019.13;6108712;23;20048;-77
2021/12/17 00:14:50;;;;;;;2.53;1.60;;;;;;;3.56;74.21;99004.47;6102347;23;20451;-75
2021/12/17 00:17:23;;;;;;;1.77;1.60;;;;;;;3.70;74.64;99025.16;6101532;23;20017;-75
2021/12/17 00:49:24;;;;;;;2.25;1.67;;;;;;;3.75;73.77;99040.59;6097686;23;20014;-76
2021/12/17 00:54:30;;;;;;;1.83;1.52;;;;;;;3.79;73.52;99047.50;6098535;23;20048;-75
2021/12/17 00:56:58;;;;;;;2.25;1.50;;;;;;;3.72;73.27;99032.88;6098335;23;20088;-79
2021/12/17 00:59:24;;;;;;;3.58;1.45;;;;;;;3.72;73.46;99038.91;6074578;23;20064;-78
2021/12/17 01:01:53;;;;;;;1.50;1.40;;;;;;;3.59;73.49;99019.94;6098387;23;20098;-76
2021/12/17 01:04:19;;;;;;;2.30;1.50;;;;;;;3.76;73.45;99052.63;6074721;23;20024;-75
2021/12/17 01:06:45;;;;;;;2.47;1.60;;;;;;;3.77;74.00;99057.78;6098578;23;20045;-77
2021/12/17 01:09:16;;;;;;;2.28;1.60;;;;;;;3.83;73.07;99059.56;6123905;23;20073;-78
2021/12/17 01:11:43;;;;;;;2.53;1.60;;;;;;;3.81;73.31;99055.22;6098927;23;20022;-76
2021/12/17 01:14:29;;;;;;;2.35;1.67;;;;;;;3.73;73.70;99045.75;6101688;23;20361;-75
2021/12/17 01:16:56;;;;;;;2.60;1.52;;;;;;;3.74;73.10;99044.91;6113220;23;20025;-76
2021/12/17 01:20:21;;;;;;;1.60;1.50;;;;;;;3.88;73.37;99049.28;6111099;23;20022;-76
2021/12/17 01:22:52;;;;;;;2.80;1.50;;;;;;;3.76;73.00;99052.63;6073939;23;20428;-77
2021/12/17 01:40:55;;;;;;;3.17;2.38;;;;;;;3.76;73.15;99068.91;6097779;23;20024;-76
2021/12/17 01:43:10;;;;;;;3.85;2.50;;;;;;;3.51;72.69;99025.88;6097316;23;20028;-77
2021/12/17 01:45:38;;;;;;;3.30;2.65;;;;;;;3.55;73.20;99031.03;6097827;23;20022;-78
2021/12/17 01:48:10;;;;;;;6.32;2.72;;;;;;;3.75;72.50;99061.19;6100095;23;20365;-79
2021/12/17 02:01:33;;;;;;;6.20;2.53;;;;;;;3.72;72.54;99071.47;6100088;23;20021;-76
2021/12/17 02:04:03;;;;;;;3.88;2.80;;;;;;;3.66;72.38;99055.97;6100620;23;20021;-75
2021/12/17 02:06:31;;;;;;;3.00;2.58;;;;;;;3.74;73.01;99080.06;6101761;23;20024;-79
2021/12/17 02:08:59;;;;;;;3.92;2.72;;;;;;;3.58;72.49;99064.53;6115472;23;20036;-77
2021/12/17 02:19:48;;;;;;;4.57;3.10;;;;;;;3.72;72.04;99092.06;6081614;23;20025;-80
2021/12/17 02:23:06;;;;;;;4.53;3.40;;;;;;;3.72;71.89;99107.50;6077515;23;20033;-76
2021/12/17 02:28:45;;;;;;;4.95;3.33;;;;;;;3.66;72.05;99103.16;6119831;23;20049;-77
2021/12/17 02:33:58;;;;;;;5.15;3.28;;;;;;;3.69;72.17;99097.19;6126572;23;20018;-77
2021/12/17 02:36:30;;;;;;;4.55;3.17;;;;;;;3.65;71.61;99100.56;6077165;23;20022;-76
2021/12/17 02:39:06;;;;;;;;;;;;;;;3.63;71.62;99102.28;6078385;23;20097;-76
2021/12/17 02:47:33;;;;;;;5.70;3.38;;;;;;;3.37;72.07;99092.63;6099801;23;20452;-77
2021/12/17 02:49:59;;;;;;;4.05;2.88;;;;;;;3.33;71.25;99093.44;6100028;23;20084;-78
2021/12/17 02:52:29;;;;;;;4.13;3.05;;;;;;;3.33;71.27;99093.44;6109098;23;20026;-74
2021/12/17 02:54:57;;;;;;;4.28;3.08;;;;;;;3.25;71.97;99085.66;6140066;23;20025;-75
2021/12/17 02:57:34;;;;;;;5.22;3.10;;;;;;;3.30;71.71;99100.28;6091425;23;20018;-75
2021/12/17 03:00:04;;;;;;;4.72;3.25;;;;;;;3.21;71.72;99095.03;6113397;23;20432;-78
2021/12/17 03:02:32;;;;;;;5.28;3.17;;;;;;;3.28;71.67;99103.72;6089387;23;20064;-76
2021/12/17 03:04:58;;;;;;;5.20;3.38;;;;;;;3.19;71.32;99091.63;6143934;23;20022;-76
2021/12/17 03:07:24;;;;;;;4.85;3.22;;;;;;;3.18;71.34;99092.47;6144440;23;20021;-76
2021/12/17 03:10:04;;;;;;;5.85;3.45;;;;;;;3.27;71.77;99105.41;6143457;23;20013;-74
2021/12/17 03:12:58;;;;;;;6.13;3.55;;;;;;;3.24;71.76;99110.50;6093098;23;20045;-75
2021/12/17 03:15:31;;;;;;;4.20;3.00;;;;;;;3.20;71.43;99111.31;6094782;23;20024;-77
2021/12/17 03:23:40;;;;;;;5.45;3.45;;;;;;;3.13;71.48;99127.56;6130492;23;20028;-76
2021/12/17 03:26:11;;;;;;;6.03;3.20;;;;;;;3.16;71.77;99122.44;6104077;23;20046;-78
2021/12/17 03:28:39;;;;;;;6.22;3.80;;;;;;;3.14;71.04;99124.13;6078591;23;20017;-75
2021/12/17 03:31:06;;;;;;;4.88;3.15;;;;;;;3.06;71.15;99110.31;6101638;23;20026;-75
2021/12/17 03:33:38;;;;;;;4.78;3.20;;;;;;;3.10;70.90;99122.38;6100732;23;20101;-78
2021/12/17 03:36:04;;;;;;;4.15;3.00;;;;;;;3.07;71.50;99107.78;6106707;23;20104;-75
2021/12/17 03:38:30;;;;;;;4.63;3.00;;;;;;;2.95;71.39;99085.38;6097302;23;20022;-78
2021/12/17 03:43:49;;;;;;;5.07;3.30;;;;;;;3.06;70.93;99121.50;6100946;23;20028;-78
2021/12/17 03:46:17;;;;;;;5.40;3.67;;;;;;;3.04;70.87;99112.00;6076657;23;20117;-77
2021/12/17 03:48:44;;;;;;;4.28;3.30;;;;;;;2.80;71.52;99072.34;6078154;23;20073;-79
2021/12/17 03:51:15;;;;;;;4.85;3.08;;;;;;;3.06;71.30;99110.31;6080555;23;20022;-75
2021/12/17 03:53:55;;;;;;;4.80;3.10;;;;;;;2.99;71.25;99114.53;6125928;23;20006;-76
2021/12/17 03:56:22;;;;;;;5.57;3.20;;;;;;;2.99;71.02;99117.13;6094389;23;20045;-77
2021/12/17 03:58:50;;;;;;;5.32;2.85;;;;;;;2.87;70.69;99094.72;6104246;23;20010;-80
2021/12/17 04:01:17;;;;;;;6.13;3.53;;;;;;;2.90;70.96;99097.31;6102106;23;20108;-75
2021/12/17 04:03:43;;;;;;;5.00;3.35;;;;;;;2.79;71.19;99086.91;6102890;23;20041;-79
2021/12/17 04:06:20;;;;;;;5.68;3.20;;;;;;;2.99;70.80;99096.56;6101828;23;20068;-78
2021/12/17 04:09:04;;;;;;;4.20;3.20;;;;;;;3.04;70.41;99112.91;6126079;23;20466;-80
2021/12/17 04:11:37;;;;;;;5.78;3.30;;;;;;;2.83;71.27;99080.09;6075541;23;20120;-77
2021/12/17 04:14:11;;;;;;;4.70;3.17;;;;;;;2.92;70.94;99116.19;6098545;23;20025;-77
2021/12/17 04:17:02;;;;;;;4.90;3.15;;;;;;;2.69;71.05;99097.91;6075308;23;20088;-75
2021/12/17 04:19:28;;;;;;;5.05;3.13;;;;;;;2.71;71.26;99127.94;6075957;23;20094;-80
2021/12/17 04:21:54;;;;;;;5.78;3.17;;;;;;;2.67;70.73;99115.91;6124834;23;20029;-76
2021/12/17 04:24:20;;;;;;;5.22;3.13;;;;;;;2.58;71.30;99099.50;6126055;23;20464;-78
2021/12/17 04:26:46;;;;;;;4.85;3.13;;;;;;;2.71;71.09;99125.38;6073748;23;20069;-78
2021/12/17 04:29:21;;;;;;;5.25;3.75;;;;;;;2.74;71.73;99124.53;6074536;23;20010;-75
2021/12/17 04:31:53;;;;;;;6.00;3.17;;;;;;;2.78;71.20;99134.03;6074094;23;20041;-74
2021/12/17 04:34:21;;;;;;;5.15;2.88;;;;;;;2.83;71.36;99136.63;6146728;23;20017;-78
2021/12/17 04:36:51;;;;;;;4.10;2.83;;;;;;;2.82;71.13;99128.06;6153064;23;20022;-80
2021/12/17 04:39:24;;;;;;;4.78;2.78;;;;;;;2.95;70.70;99146.19;6153918;23;20018;-77
2021/12/17 04:41:58;;;;;;;2.92;2.25;;;;;;;2.96;70.83;99143.66;6128718;23;20025;-78
2021/12/17 04:44:31;;;;;;;5.00;2.15;;;;;;;3.01;70.27;99143.69;6155660;23;20041;-76
2021/12/17 04:57:17;;;;;;;3.47;2.50;;;;;;;3.06;70.90;99142.06;6140205;23;20021;-74
2021/12/17 04:58:08;;;;;;;3.30;2.00;;;;;;;3.06;71.21;99136.03;6168671;23;20028;-76
2021/12/17 05:00:34;;;;;;;3.78;2.00;;;;;;;3.15;70.55;99149.00;6150058;23;20021;-76
2021/12/17 05:03:07;;;;;;;3.17;2.20;;;;;;;3.18;70.54;99146.47;6140462;23;20351;-79
2021/12/17 05:05:35;;;;;;;3.85;2.13;;;;;;;3.20;70.77;99147.31;6131060;23;20108;-78
2021/12/17 05:08:13;;;;;;;3.58;2.30;;;;;;;3.23;70.09;99155.06;6132104;23;20018;-75
2021/12/17 05:19:51;;;;;;;3.15;2.00;;;;;;;3.29;69.46;99157.72;6130096;23;20067;-78
2021/12/17 05:22:20;;;;;;;3.65;1.90;;;;;;;3.39;69.88;99180.97;6153347;23;20100;-77
2021/12/17 05:24:47;;;;;;;4.03;2.10;;;;;;;3.45;70.00;99205.03;6128728;23;20522;-76
2021/12/17 05:27:13;;;;;;;2.38;1.60;;;;;;;3.49;69.64;99198.22;6159880;23;20047;-78
2021/12/17 05:29:48;;;;;;;3.40;1.80;;;;;;;3.46;69.34;99198.16;6156265;23;20021;-77
2021/12/17 05:32:14;;;;;;;3.80;1.65;;;;;;;3.51;69.39;99198.25;6156041;23;20317;-76
2021/12/17 05:34:39;;;;;;;3.38;2.03;;;;;;;3.41;69.75;99185.28;6111723;23;20021;-77
2021/12/17 05:37:08;;;;;;;3.85;1.95;;;;;;;3.53;69.34;99209.41;6126805;23;20009;-76
2021/12/17 05:39:34;;;;;;;4.35;1.75;;;;;;;3.43;69.47;99185.28;6115942;23;20045;-73
2021/12/17 05:42:03;;;;;;;4.63;1.88;;;;;;;3.54;68.90;99214.56;6085173;23;20024;-77
2021/12/17 05:44:29;;;;;;;3.28;1.83;;;;;;;3.57;69.14;99219.75;6102299;23;20318;-76
2021/12/17 05:46:55;;;;;;;5.03;1.65;;;;;;;3.51;68.67;99218.81;6100892;23;20025;-77
2021/12/17 05:49:26;;;;;;;3.05;1.67;;;;;;;3.57;68.77;99221.44;6100258;23;20367;-76
2021/12/17 05:51:54;;;;;;;2.15;1.52;;;;;;;3.46;68.94;99208.47;6077048;23;20029;-77
2021/12/17 05:54:21;;;;;;;2.85;1.50;;;;;;;3.45;68.36;99206.72;6077572;23;20084;-76
2021/12/17 05:56:47;;;;;;;2.25;1.60;;;;;;;3.63;68.57;99230.94;6081512;23;20078;-77
2021/12/17 05:59:14;;;;;;;2.55;1.35;;;;;;;3.68;68.54;99230.16;6120022;23;20045;-77
2021/12/17 06:01:43;;;;;;;1.65;1.35;;;;;;;3.52;68.32;99218.81;6080294;23;20026;-76
2021/12/17 06:04:12;;;;;;;2.17;1.52;;;;;;;3.62;68.04;99235.22;6099824;23;20352;-78
2021/12/17 06:06:56;;;;;;;1.60;1.30;;;;;;;3.52;68.25;99223.97;6074859;23;20460;-78
2021/12/17 06:09:22;;;;;;;1.85;1.35;;;;;;;3.51;68.22;99221.41;6075109;23;20061;-79
2021/12/17 06:11:48;;;;;;;2.47;1.20;;;;;;;3.51;67.48;99237.69;6097716;23;20343;-77
2021/12/17 06:14:17;;;;;;;1.65;1.10;;;;;;;3.40;67.83;99234.13;6075564;23;20044;-81
2021/12/17 06:16:44;;;;;;;2.55;1.50;;;;;;;3.33;67.55;99232.34;6074793;23;20074;-79
2021/12/17 06:19:19;;;;;;;2.55;1.55;;;;;;;3.37;67.81;99244.38;6074704;23;20100;-76
2021/12/17 06:21:47;;;;;;;1.90;0.93;;;;;;;3.41;67.66;99251.31;6098190;23;20022;-75
2021/12/17 06:24:15;;;;;;;1.05;0.98;;;;;;;3.45;67.92;99247.88;6072046;23;20640;-80
2021/12/17 06:26:50;;;;;;;1.40;1.10;;;;;;;3.39;67.57;99245.28;6098687;23;20017;-76
2021/12/17 06:29:16;;;;;;;1.33;1.05;;;;;;;3.45;67.74;99253.91;6073791;23;20013;-77
2021/12/17 06:31:44;;;;;;;2.90;1.20;;;;;;;3.50;67.10;99253.97;6051617;23;20022;-80
2021/12/17 06:34:13;;;;;;;1.58;1.27;;;;;;;3.59;67.13;99266.06;6120048;23;20367;-75
2021/12/17 06:36:41;;;;;;;3.00;1.33;;;;;;;3.56;67.23;99246.31;6154767;23;20021;-77
2021/12/17 06:39:07;;;;;;;1.85;1.10;;;;;;;3.60;67.14;99254.91;6158975;23;20024;-77
2021/12/17 06:41:38;;;;;;;1.55;1.13;;;;;;;3.64;67.14;99266.97;6136641;23;20025;-77
2021/12/17 06:44:06;;;;;;;2.63;1.08;;;;;;;3.67;66.36;99266.13;6135245;23;20255;-78
2021/12/17 06:46:51;;;;;;;2.25;1.00;;;;;;;3.74;66.38;99276.53;6154342;23;20489;-79
2021/12/17 06:49:26;;;;;;;1.30;1.10;;;;;;;3.72;66.82;99280.81;6161952;23;20017;-76
2021/12/17 07:19:01;;;;;;;1.52;1.30;;;;;;;3.97;65.33;99311.06;6175064;23;20016;-78
2021/12/17 07:39:44;;;;;;;2.08;1.75;;;;;;;4.12;64.62;99333.53;6157339;23;20017;-81
2021/12/17 07:42:16;;;;;;;4.03;1.70;;;;;;;4.00;64.23;99327.41;6133547;23;20025;-80
2021/12/17 07:45:11;;;;;;;2.95;1.80;;;;;;;3.82;64.85;99302.34;6153534;23;20018;-77
2021/12/17 07:47:57;;;;;;;5.80;1.70;;;;;;;3.97;65.08;99311.94;6162598;23;20025;-77
2021/12/17 07:50:33;;;;;;;2.03;1.55;;;;;;;4.01;64.70;99310.25;6165617;23;20015;-78
2021/12/17 07:53:08;;;;;;;;;;;;;;;4.19;65.25;99331.03;6169898;23;20121;-78
2021/12/17 07:56:00;;;;;;;1.88;1.40;;;;;;;4.25;64.44;99331.94;6149741;23;19932;-80
2021/12/17 07:58:29;;;;;;;2.92;1.50;;;;;;;3.97;64.47;99290.47;6168355;23;20017;-76
2021/12/17 08:00:57;;;;;;;2.35;1.52;;;;;;;4.18;64.50;99319.00;6171121;23;20056;-78
2021/12/17 08:03:24;;;;;;;2.17;1.50;;;;;;;4.05;64.34;99294.00;6143719;23;20027;-76
2021/12/17 08:06:00;;;;;;;2.40;1.70;;;;;;;4.37;64.47;99334.63;6170386;23;20545;-73
2021/12/17 08:08:29;;;;;;;2.00;1.58;;;;;;;4.36;64.71;99313.16;6168716;23;20078;-75
2021/12/17 08:11:08;;;;;;;4.25;1.70;;;;;;;4.51;63.69;99337.31;6135857;23;20025;-79
2021/12/17 08:13:36;;;;;;;3.05;1.77;;;;;;;4.47;63.37;99333.88;6158473;23;20068;-76
2021/12/17 08:16:31;;;;;;;2.72;1.58;;;;;;;4.40;63.46;99334.66;6157775;23;20044;-75
2021/12/17 08:32:06;;;;;;;2.33;1.85;;;;;;;4.43;63.56;99334.69;6154642;23;20111;-77
2021/12/17 08:34:53;;;;;;;5.05;2.10;;;;;;;4.50;63.38;99330.44;6158998;23;20459;-77
2021/12/17 08:37:19;;;;;;;4.95;2.92;;;;;;;4.52;63.23;99329.59;6133380;23;20029;-77
2021/12/17 08:39:48;;;;;;;2.83;2.30;;;;;;;4.32;62.66;99305.38;6131889;23;20017;-77
2021/12/17 08:42:35;;;;;;;3.17;2.20;;;;;;;4.41;63.26;99307.19;6130927;23;20071;-76
2021/12/17 08:45:06;;;;;;;2.60;1.80;;;;;;;4.40;62.37;99321.78;6105661;23;20045;-79
2021/12/17 08:47:49;;;;;;;2.72;1.98;;;;;;;4.39;62.16;99329.50;6155650;23;20092;-77
2021/12/17 08:50:24;;;;;;;3.88;2.10;;;;;;;4.36;61.74;99332.91;6152894;23;20013;-78
2021/12/17 08:52:53;;;;;;;4.35;2.03;;;;;;;4.39;62.38;99332.94;6129033;23;20025;-78
2021/12/17 08:55:19;;;;;;;3.85;2.35;;;;;;;4.35;62.74;99341.47;6154505;23;20099;-78
2021/12/17 08:57:45;;;;;;;2.58;1.52;;;;;;;4.30;62.41;99333.72;6160323;23;20534;-79
2021/12/17 09:00:13;;;;;;;4.03;1.95;;;;;;;4.38;62.22;99331.19;6137282;23;20018;-75
2021/12/17 09:03:13;;;;;;;2.35;1.83;;;;;;;4.37;62.30;99332.03;6178494;23;20017;-76
2021/12/17 09:05:45;;;;;;;5.28;2.40;;;;;;;4.39;61.83;99312.31;6171823;23;20400;-73
2021/12/17 09:08:16;;;;;;;3.50;2.53;;;;;;;3.99;61.58;99238.13;6116410;23;20060;-74
2021/12/17 09:10:48;;;;;;;3.50;2.58;;;;;;;3.63;62.01;99211.22;6166995;23;20005;-77
2021/12/17 09:13:14;;;;;;;4.95;2.60;;;;;;;4.41;61.84;99346.69;6157518;23;20024;-75
2021/12/17 09:15:43;;;;;;;2.83;2.28;;;;;;;4.27;62.23;99322.53;6155068;23;20041;-79
2021/12/17 09:18:35;;;;;;;4.07;2.33;;;;;;;4.33;62.47;99338.88;6152048;23;20014;-76
2021/12/17 09:21:24;;;;;;;3.75;2.70;;;;;;;4.11;62.14;99327.50;6153117;23;20075;-78
2021/12/17 09:24:00;;;;;;;4.53;2.65;;;;;;;4.27;62.68;99346.56;6126831;23;20431;-76
2021/12/17 09:26:35;;;;;;;3.65;2.58;;;;;;;4.15;62.71;99343.88;6154215;23;20021;-75
2021/12/17 09:29:03;;;;;;;4.00;2.50;;;;;;;4.21;62.32;99349.06;6139640;23;20013;-76
2021/12/17 09:31:28;;;;;;;4.15;2.60;;;;;;;4.22;62.76;99351.66;6128160;23;20021;-77
2021/12/17 09:33:54;;;;;;;2.55;2.35;;;;;;;4.14;62.98;99335.25;6154436;23;20503;-78
2021/12/17 09:36:21;;;;;;;4.35;2.78;;;;;;;4.26;62.67;99349.13;6131725;23;20022;-79
2021/12/17 09:38:49;;;;;;;3.95;2.80;;;;;;;4.21;62.69;99329.34;6151660;23;20072;-76
2021/12/17 09:41:16;;;;;;;5.75;2.45;;;;;;;4.32;62.26;99350.03;6151119;23;20021;-76
2021/12/17 09:43:43;;;;;;;3.63;2.90;;;;;;;4.28;63.04;99339.72;6153040;23;20355;-78
2021/12/17 09:46:09;;;;;;;4.03;3.00;;;;;;;4.28;62.67;99343.13;6153149;23;20463;-77
2021/12/17 09:48:36;;;;;;;4.15;3.08;;;;;;;4.18;62.66;99324.16;6176009;23;20020;-78
2021/12/17 09:51:05;;;;;;;3.78;3.00;;;;;;;4.30;62.63;99336.28;6151977;23;20547;-80
2021/12/17 09:53:33;;;;;;;4.43;3.20;;;;;;;4.39;62.96;99339.81;6152748;23;20018;-77
2021/12/17 09:55:59;;;;;;;3.80;3.00;;;;;;;4.41;62.87;99346.69;6151665;23;20017;-78
2021/12/17 09:58:25;;;;;;;4.63;3.33;;;;;;;4.37;62.85;99327.78;6152978;23;20020;-78
2021/12/17 10:00:51;;;;;;;4.53;3.00;;;;;;;4.50;62.49;99348.47;6152005;23;20017;-77
2021/12/17 10:03:18;;;;;;;3.35;2.90;;;;;;;4.50;62.61;99345.91;6154162;23;20546;-76
2021/12/17 10:05:48;;;;;;;8.07;3.88;;;;;;;4.42;62.47;99345.84;6152644;23;20045;-76
2021/12/17 10:08:19;;;;;;;5.70;3.20;;;;;;;4.42;62.28;99352.69;6150490;23;20048;-79
2021/12/17 10:10:54;;;;;;;3.92;3.15;;;;;;;4.36;62.49;99353.50;6128216;23;20025;-76
2021/12/17 10:13:25;;;;;;;4.70;3.00;;;;;;;4.33;62.52;99358.63;6155261;23;20055;-78
2021/12/17 10:16:01;;;;;;;6.40;2.85;;;;;;;4.27;62.12;99345.72;6154319;23;20013;-76
2021/12/17 10:18:47;;;;;;;3.30;2.63;;;;;;;4.30;62.10;99364.63;6128927;23;20040;-76
2021/12/17 10:21:21;;;;;;;4.65;3.20;;;;;;;4.26;63.11;99357.72;6104832;23;20022;-77
2021/12/17 10:23:50;;;;;;;5.18;3.40;;;;;;;4.26;62.81;99343.97;6156707;23;20021;-79
2021/12/17 10:26:19;;;;;;;6.68;2.83;;;;;;;4.42;62.71;99371.59;6133425;23;20029;-76
2021/12/17 10:28:52;;;;;;;5.22;3.13;;;;;;;4.21;62.53;99355.09;6108068;23;20040;-78
2021/12/17 10:31:19;;;;;;;4.68;3.03;;;;;;;4.38;62.68;99377.56;6156474;23;20029;-77
2021/12/17 10:33:52;;;;;;;4.97;2.85;;;;;;;4.11;62.22;99342.13;6129320;23;20017;-80
2021/12/17 10:36:33;;;;;;;5.45;3.05;;;;;;;4.17;62.86;99361.06;6111951;23;20025;-74
2021/12/17 10:39:04;;;;;;;6.22;3.13;;;;;;;4.03;62.40;99347.19;6150560;23;20176;-77
2021/12/17 10:41:31;;;;;;;4.68;2.78;;;;;;;3.94;62.65;99329.06;6157496;23;20092;-80
2021/12/17 10:44:07;;;;;;;4.97;3.03;;;;;;;4.13;62.47;99361.88;6130906;23;20463;-79
2021/12/17 10:46:44;;;;;;;4.55;3.03;;;;;;;4.04;62.32;99347.19;6154316;23;20105;-81
2021/12/17 10:54:09;;;;;;;4.65;2.95;;;;;;;4.29;62.19;99390.38;6156519;23;20021;-76
2021/12/17 10:56:41;;;;;;;7.05;3.20;;;;;;;4.10;62.27;99364.41;6132433;23;20096;-77
2021/12/17 10:59:13;;;;;;;5.30;3.05;;;;;;;4.29;62.27;99390.38;6161704;23;20113;-76
2021/12/17 11:01:53;;;;;;;4.82;2.80;;;;;;;4.15;62.52;99365.31;6135310;23;20018;-74
2021/12/17 11:04:23;;;;;;;6.22;2.65;;;;;;;4.21;62.48;99385.13;6163658;23;20026;-75
2021/12/17 11:06:57;;;;;;;5.43;2.72;;;;;;;4.22;61.69;99392.00;6131430;23;20021;-75
2021/12/17 11:09:41;;;;;;;5.32;2.83;;;;;;;4.09;62.41;99391.00;6155163;23;20080;-78
2021/12/17 11:12:12;;;;;;;4.38;2.53;;;;;;;4.08;62.53;99391.88;6130666;23;20052;-78
2021/12/17 11:14:42;;;;;;;5.90;2.80;;;;;;;4.04;61.85;99379.81;6157266;23;20096;-76
2021/12/17 11:17:16;;;;;;;4.18;2.38;;;;;;;4.14;62.33;99397.06;6155865;23;20029;-79
2021/12/17 11:19:43;;;;;;;5.93;2.50;;;;;;;4.20;62.54;99398.84;6158194;23;20021;-79
2021/12/17 11:22:10;;;;;;;6.50;2.53;;;;;;;4.19;62.03;99399.72;6135277;23;20017;-80
2021/12/17 11:24:37;;;;;;;3.97;2.55;;;;;;;4.20;61.82;99412.59;6159263;23;20032;-78
2021/12/17 11:27:05;;;;;;;4.28;2.60;;;;;;;4.02;62.29;99382.34;6157339;23;20084;-79
2021/12/17 11:29:32;;;;;;;5.80;3.38;;;;;;;4.12;62.25;99408.22;6157173;23;20399;-80
2021/12/17 11:32:02;;;;;;;6.90;2.83;;;;;;;4.02;62.08;99395.22;6159005;23;20029;-78
2021/12/17 11:34:30;;;;;;;5.20;3.10;;;;;;;4.15;62.24;99416.84;6158506;23;20021;-78
2021/12/17 11:37:00;;;;;;;5.40;3.25;;;;;;;4.12;61.72;99419.38;6158567;23;20175;-82
2021/12/17 11:39:30;;;;;;;5.68;3.53;;;;;;;4.14;62.19;99421.97;6154539;23;20013;-82
2021/12/17 11:42:30;;;;;;;6.80;3.42;;;;;;;4.10;62.06;99420.22;6155421;23;20029;-78
2021/12/17 11:47:46;;;;;;;3.97;3.40;;;;;;;3.97;62.53;99408.91;6169392;23;20028;-77
2021/12/17 11:50:17;;;;;;;10.15;5.90;;;;;;;3.90;62.91;99401.09;6170179;23;20033;-76
2021/12/17 11:52:50;;;;;;;7.97;5.55;;;;;;;3.98;62.15;99410.63;6150172;23;20005;-75
2021/12/17 11:55:26;;;;;;;8.25;5.78;;;;;;;3.93;62.66;99418.31;6175336;23;20022;-75
2021/12/17 11:57:58;;;;;;;7.95;5.38;;;;;;;3.96;63.28;99423.50;6138326;23;20052;-76
2021/12/17 12:00:44;;;;;;;10.85;7.13;;;;;;;3.75;63.07;99382.91;6144411;23;20004;-77
2021/12/17 12:03:24;;;;;;;12.30;9.75;;;;;;;3.95;62.62;99423.47;6154109;23;20017;-76
2021/12/17 12:05:53;;;;;;;11.23;9.00;;;;;;;3.89;62.87;99430.25;6163664;23;20064;-78
2021/12/17 12:08:26;;;;;;;12.10;9.00;;;;;;;3.88;62.83;99430.25;6135595;23;20043;-78
2021/12/17 12:11:10;;;;;;;12.23;8.25;;;;;;;3.63;62.85;99404.22;6157973;23;20021;-76
2021/12/17 12:13:47;;;;;;;11.52;8.00;;;;;;;3.56;62.67;99416.13;6156725;23;20017;-77
2021/12/17 12:16:23;;;;;;;9.18;7.05;;;;;;;3.64;63.04;99438.53;6159649;23;20013;-81
2021/12/17 12:18:51;;;;;;;9.63;6.50;;;;;;;3.51;62.90;99425.50;6158159;23;20078;-78
2021/12/17 12:21:23;;;;;;;9.57;6.97;;;;;;;3.63;63.79;99440.22;6163314;23;20032;-79
2021/12/17 12:23:55;;;;;;;8.65;5.60;;;;;;;3.75;63.93;99449.81;6164382;23;20013;-80
2021/12/17 12:26:27;;;;;;;11.05;5.60;;;;;;;3.66;63.08;99437.72;6139838;23;20466;-78
2021/12/17 12:29:05;;;;;;;6.95;3.75;;;;;;;3.55;63.04;99445.28;6141776;23;20037;-78
2021/12/17 12:31:34;;;;;;;5.65;3.13;;;;;;;3.59;63.84;99452.19;6166270;23;20027;-78
2021/12/17 12:34:03;;;;;;;6.05;3.25;;;;;;;3.55;63.35;99452.13;6104455;23;20108;-76
2021/12/17 12:36:51;;;;;;;4.90;2.90;;;;;;;3.59;63.57;99451.31;6112309;23;20073;-78
2021/12/17 12:39:20;;;;;;;4.50;2.80;;;;;;;3.51;63.33;99458.94;6110630;23;20029;-80
2021/12/17 12:42:06;;;;;;;7.95;2.80;;;;;;;3.44;63.28;99464.81;6114634;23;20022;-79
2021/12/17 12:44:44;;;;;;;5.07;2.97;;;;;;;3.46;63.32;99458.00;6103324;23;20009;-76
2021/12/17 12:47:14;;;;;;;4.97;2.92;;;;;;;3.35;63.13;99447.56;6146696;23;20105;-75
2021/12/17 12:49:50;;;;;;;4.95;2.80;;;;;;;3.54;63.57;99463.25;6071219;23;20049;-78
2021/12/17 12:52:46;;;;;;;5.47;2.95;;;;;;;3.61;63.22;99465.97;6113632;23;20032;-81
2021/12/17 12:55:22;;;;;;;4.45;3.00;;;;;;;2.88;62.78;99345.75;6138999;23;20074;-76
2021/12/17 12:57:52;;;;;;;6.47;2.72;;;;;;;3.64;62.60;99483.13;6096318;23;20024;-76
2021/12/17 13:00:26;;;;;;;3.10;2.17;;;;;;;3.59;62.27;99477.94;6117590;23;20014;-75
2021/12/17 13:03:00;;;;;;;3.45;2.40;;;;;;;3.54;62.14;99474.41;6113471;23;20028;-81
2021/12/17 13:05:26;;;;;;;6.35;2.70;;;;;;;3.55;62.55;99480.41;6111492;23;20046;-78
2021/12/17 13:08:00;;;;;;;5.07;2.60;;;;;;;3.60;62.82;99474.53;6113145;23;20117;-79
2021/12/17 13:10:33;;;;;;;4.03;2.60;;;;;;;3.55;61.72;99478.72;6114246;23;20014;-79
2021/12/17 13:21:17;;;;;;;5.05;2.03;;;;;;;3.40;61.56;99456.22;6138590;23;20022;-77
2021/12/17 13:23:57;;;;;;;3.17;2.05;;;;;;;3.36;62.15;99462.16;6134759;23;20022;-80
2021/12/17 13:26:27;;;;;;;6.10;2.58;;;;;;;3.29;61.80;99463.75;6142025;23;20010;-79
2021/12/17 13:29:09;;;;;;;6.90;2.60;;;;;;;3.23;61.40;99465.38;6069812;23;20016;-77
2021/12/17 13:32:06;;;;;;;5.53;2.53;;;;;;;3.50;61.44;99500.94;6070700;23;20021;-78
2021/12/17 13:34:51;;;;;;;3.70;2.38;;;;;;;3.49;61.64;99506.06;6141563;23;20024;-76
2021/12/17 13:37:24;;;;;;;6.00;2.78;;;;;;;3.43;61.45;99506.81;6095398;23;20084;-76
2021/12/17 13:40:05;;;;;;;5.00;2.88;;;;;;;3.09;61.08;99460.00;6121791;23;20018;-80
2021/12/17 13:42:38;;;;;;;4.15;2.50;;;;;;;3.50;61.72;99510.38;6147817;23;20021;-78
2021/12/17 13:45:13;;;;;;;4.43;2.80;;;;;;;3.58;61.57;99514.81;6121946;23;20017;-78
2021/12/17 13:47:42;;;;;;;4.85;2.63;;;;;;;3.51;60.85;99512.97;6146929;23;20017;-76
2021/12/17 13:50:19;;;;;;;5.18;2.30;;;;;;;3.35;61.03;99495.56;6147204;23;20046;-76
2021/12/17 13:53:12;;;;;;;6.05;3.38;;;;;;;3.44;61.62;99521.41;6123661;23;20046;-77
2021/12/17 13:55:41;;;;;;;6.80;3.30;;;;;;;3.33;61.05;99504.97;6100831;23;20022;-78
2021/12/17 13:58:30;;;;;;;5.05;3.20;;;;;;;3.45;61.09;99530.88;6099710;23;20013;-76
2021/12/17 14:01:02;;;;;;;5.15;2.80;;;;;;;3.15;61.40;99485.84;6124475;23;20024;-80
2021/12/17 14:03:35;;;;;;;7.93;3.33;;;;;;;2.35;61.43;99324.34;6124686;23;19994;-77
2021/12/17 14:06:18;;;;;;;5.60;2.58;;;;;;;3.27;61.72;99483.44;6125000;23;20018;-77
2021/12/17 14:08:44;;;;;;;5.15;2.67;;;;;;;3.56;61.23;99528.47;6152470;23;19998;-77
2021/12/17 14:11:28;;;;;;;5.32;2.67;;;;;;;3.43;61.29;99511.97;6117949;23;20425;-78
2021/12/17 14:13:53;;;;;;;7.30;3.72;;;;;;;3.46;60.85;99512.91;6118300;23;20013;-79
2021/12/17 14:16:34;;;;;;;6.85;3.72;;;;;;;3.59;61.27;99538.81;6141805;23;20017;-78
2021/12/17 14:19:03;;;;;;;5.20;3.20;;;;;;;3.63;61.12;99535.44;6115616;23;20096;-81
2021/12/17 14:21:33;;;;;;;7.45;3.80;;;;;;;3.42;61.40;99505.13;6113747;23;20017;-77
2021/12/17 14:24:01;;;;;;;9.07;4.03;;;;;;;3.66;61.60;99532.03;6115404;23;20499;-76
2021/12/17 14:26:29;;;;;;;6.90;3.40;;;;;;;3.64;61.26;99526.88;6145966;23;20041;-77
2021/12/17 14:29:07;;;;;;;6.95;3.67;;;;;;;3.85;60.66;99546.94;6151973;23;20036;-75
2021/12/17 14:31:42;;;;;;;7.50;3.78;;;;;;;3.79;60.84;99536.53;6149148;23;20045;-77
2021/12/17 14:34:16;;;;;;;8.55;4.05;;;;;;;3.46;60.63;99482.03;6146520;23;20028;-79
2021/12/17 14:36:45;;;;;;;7.55;3.65;;;;;;;3.03;60.83;99435.09;6174471;23;20009;-80
2021/12/17 14:39:17;;;;;;;5.35;3.00;;;;;;;3.34;60.57;99486.13;6176303;23;19998;-79
2021/12/17 14:44:34;;;;;;;4.95;3.30;;;;;;;3.70;60.62;99533.81;6167911;23;20049;-79
2021/12/17 14:47:22;;;;;;;11.40;5.82;;;;;;;3.46;60.17;99499.16;6173675;23;20017;-78
2021/12/17 15:05:48;;;;;;;9.02;3.80;;;;;;;3.46;60.82;99543.78;6166818;23;20028;-82
2021/12/17 15:08:16;;;;;;;8.95;3.72;;;;;;;3.61;60.65;99566.31;6166991;23;20021;-78
2021/12/17 15:10:42;;;;;;;6.97;3.28;;;;;;;3.25;60.14;99510.84;6168857;23;20017;-80
2021/12/17 15:13:08;;;;;;;5.45;2.70;;;;;;;3.37;61.07;99538.47;6167080;23;20045;-81
2021/12/17 15:15:37;;;;;;;4.78;2.80;;;;;;;3.50;60.32;99572.97;6162405;23;20502;-80
2021/12/17 15:18:14;;;;;;;4.85;2.85;;;;;;;3.63;60.78;99586.91;6175414;23;20005;-80
2021/12/17 15:21:06;;;;;;;5.10;2.88;;;;;;;3.46;60.48;99568.63;6168029;23;20419;-77
2021/12/17 15:23:32;;;;;;;4.78;2.97;;;;;;;3.50;61.23;99603.84;6167142;23;20033;-79
2021/12/17 15:25:58;;;;;;;7.85;4.18;;;;;;;3.49;60.97;99593.56;6143888;23;20021;-81
2021/12/17 15:28:29;;;;;;;7.50;3.90;;;;;;;2.94;60.95;99528.34;6141138;23;20080;-81